Time;durP1;ratioP1;P1;durP2;ratioP2;P2;SDS_P1;SDS_P2;PMS_P1;PMS_P2;Temp;Humidity;BMP_temperature;BMP_pressure;BME280_temperature;BME280_humidity;BME280_pressure;Samples;Min_cycle;Max_cycle;Signal;HPM_P1;HPM_P2
2022/06/18 00:01:34;;;;;;;59.20;3.63;;;;;;;;;;5033153;28;20497;-81
2022/06/18 00:04:06;;;;;;;61.17;4.90;;;;;;;;;;5033221;28;20425;-82
2022/06/18 00:06:35;;;;;;;59.67;3.90;;;;;;;;;;5033583;28;20489;-81
2022/06/18 00:09:02;;;;;;;60.07;4.20;;;;;;;;;;5033368;28;20519;-81
2022/06/18 00:14:16;;;;;;;64.13;4.67;;;;;;;;;;5033228;28;20421;-82
2022/06/18 00:16:43;;;;;;;60.97;4.73;;;;;;;;;;5032593;28;20523;-82
2022/06/18 00:19:11;;;;;;;59.80;3.50;;;;;;;;;;5032652;28;21023;-81
2022/06/18 00:21:38;;;;;;;60.03;3.90;;;;;;;;;;5033346;28;20971;-81
2022/06/18 00:24:08;;;;;;;65.53;4.90;;;;;;;;;;5033522;28;20441;-82
2022/06/18 00:26:37;;;;;;;60.27;3.90;;;;;;;;;;5032678;28;20492;-82
2022/06/18 00:29:04;;;;;;;60.20;4.50;;;;;;;;;;5033044;28;20491;-82
2022/06/18 00:31:32;;;;;;;60.23;4.40;;;;;;;;;;5033030;28;20468;-82
2022/06/18 00:33:59;;;;;;;59.73;4.00;;;;;;;;;;5033134;28;20467;-82
2022/06/18 00:36:26;;;;;;;60.67;4.47;;;;;;;;;;5032756;28;20456;-81
2022/06/18 00:38:54;;;;;;;60.57;3.97;;;;;;;;;;5032610;28;20475;-81
2022/06/18 00:41:23;;;;;;;59.70;3.70;;;;;;;;;;5033149;28;20511;-81
2022/06/18 00:43:54;;;;;;;60.20;4.40;;;;;;;;;;5033211;28;20440;-82
2022/06/18 00:46:24;;;;;;;61.10;4.20;;;;;;;;;;5033036;28;20836;-82
2022/06/18 00:48:55;;;;;;;61.00;4.60;;;;;;;;;;5032584;28;20443;-81
2022/06/18 00:51:26;;;;;;;59.93;4.00;;;;;;;;;;5033311;28;20526;-81
2022/06/18 00:53:55;;;;;;;60.47;4.60;;;;;;;;;;5032860;28;20437;-82
2022/06/18 00:56:25;;;;;;;60.40;4.10;;;;;;;;;;5032988;28;20468;-81
2022/06/18 00:58:57;;;;;;;59.70;4.17;;;;;;;;;;5032406;28;20445;-81
2022/06/18 01:01:26;;;;;;;60.50;4.43;;;;;;;;;;5033110;28;20453;-82
2022/06/18 01:03:55;;;;;;;60.90;3.63;;;;;;;;;;5031535;28;20445;-81
2022/06/18 01:06:25;;;;;;;59.57;4.10;;;;;;;;;;5035188;28;20567;-82
2022/06/18 01:08:59;;;;;;;59.27;3.80;;;;;;;;;;5044472;28;20432;-81
2022/06/18 01:11:27;;;;;;;59.90;3.90;;;;;;;;;;5037514;28;20514;-81
2022/06/18 01:13:56;;;;;;;59.87;3.90;;;;;;;;;;5036010;28;20467;-81
2022/06/18 01:16:24;;;;;;;59.57;4.30;;;;;;;;;;5034411;28;20488;-81
2022/06/18 01:18:52;;;;;;;59.37;3.67;;;;;;;;;;5032901;28;20456;-81
2022/06/18 01:21:32;;;;;;;60.17;4.07;;;;;;;;;;5033065;28;20526;-81
2022/06/18 01:24:03;;;;;;;60.57;4.23;;;;;;;;;;5032540;28;20452;-81
2022/06/18 01:26:32;;;;;;;59.40;3.80;;;;;;;;;;5032188;28;20518;-81
2022/06/18 01:29:00;;;;;;;60.33;4.37;;;;;;;;;;5033478;28;20502;-81
2022/06/18 01:31:27;;;;;;;65.40;3.80;;;;;;;;;;5035902;28;20457;-82
2022/06/18 01:33:55;;;;;;;60.50;3.90;;;;;;;;;;5037287;28;20513;-82
2022/06/18 01:36:22;;;;;;;59.67;3.80;;;;;;;;;;5036441;28;20510;-82
2022/06/18 01:38:50;;;;;;;59.40;3.70;;;;;;;;;;5036315;28;20839;-82
2022/06/18 01:44:08;;;;;;;59.57;3.60;;;;;;;;;;5036570;28;20412;-81
2022/06/18 01:46:37;;;;;;;59.60;3.90;;;;;;;;;;5036553;28;20492;-81
2022/06/18 01:49:07;;;;;;;59.20;3.80;;;;;;;;;;5036329;28;20446;-81
2022/06/18 01:51:35;;;;;;;59.30;3.67;;;;;;;;;;5036185;28;20459;-81
2022/06/18 01:54:06;;;;;;;59.77;4.00;;;;;;;;;;5036145;28;20455;-81
2022/06/18 01:56:36;;;;;;;59.77;3.63;;;;;;;;;;5036145;28;20441;-82
2022/06/18 01:59:06;;;;;;;61.20;4.17;;;;;;;;;;5036449;28;20421;-81
2022/06/18 02:01:39;;;;;;;59.30;3.60;;;;;;;;;;5036089;28;20459;-82
2022/06/18 02:04:06;;;;;;;59.13;3.60;;;;;;;;;;5035401;28;20502;-81
2022/06/18 02:06:35;;;;;;;61.10;3.90;;;;;;;;;;5036043;28;20549;-82
2022/06/18 02:09:03;;;;;;;59.97;3.73;;;;;;;;;;5035696;28;20445;-81
2022/06/18 02:11:30;;;;;;;59.63;3.60;;;;;;;;;;5040260;28;20464;-82
2022/06/18 02:14:01;;;;;;;59.03;3.53;;;;;;;;;;5036233;28;20881;-81
2022/06/18 02:16:29;;;;;;;60.27;4.27;;;;;;;;;;5035924;28;20946;-81
2022/06/18 02:18:59;;;;;;;59.50;3.73;;;;;;;;;;5035711;28;20489;-81
2022/06/18 02:21:27;;;;;;;60.00;3.53;;;;;;;;;;5036411;28;20472;-81
2022/06/18 02:23:55;;;;;;;59.77;3.63;;;;;;;;;;5036042;28;20505;-81
2022/06/18 02:26:24;;;;;;;60.20;3.60;;;;;;;;;;5035608;28;20456;-81
2022/06/18 02:28:53;;;;;;;60.50;4.13;;;;;;;;;;5036005;28;20868;-81
2022/06/18 02:31:23;;;;;;;59.80;4.10;;;;;;;;;;5035759;28;20526;-81
2022/06/18 02:33:52;;;;;;;60.10;4.30;;;;;;;;;;5036463;28;20479;-82
2022/06/18 02:36:23;;;;;;;59.47;4.00;;;;;;;;;;5036405;28;20442;-81
2022/06/18 02:38:53;;;;;;;59.87;4.03;;;;;;;;;;5036026;28;20495;-81
2022/06/18 02:41:20;;;;;;;60.87;4.20;;;;;;;;;;5035301;28;20464;-81
2022/06/18 02:43:47;;;;;;;59.60;3.83;;;;;;;;;;5036527;28;20456;-81
2022/06/18 02:46:15;;;;;;;60.10;4.10;;;;;;;;;;5036283;28;20437;-81
2022/06/18 02:48:42;;;;;;;60.40;4.30;;;;;;;;;;5036321;28;20926;-81
2022/06/18 02:51:11;;;;;;;60.67;4.20;;;;;;;;;;5036469;28;20499;-81
2022/06/18 02:53:40;;;;;;;59.80;3.97;;;;;;;;;;5036911;28;20489;-81
2022/06/18 02:56:08;;;;;;;60.77;4.30;;;;;;;;;;5036897;28;20461;-81
2022/06/18 02:58:37;;;;;;;59.90;4.50;;;;;;;;;;5037348;28;20447;-81
2022/06/18 03:01:06;;;;;;;59.93;3.70;;;;;;;;;;5036989;28;20456;-81
2022/06/18 03:03:34;;;;;;;59.87;3.70;;;;;;;;;;5036551;28;20492;-81
2022/06/18 03:06:02;;;;;;;60.60;4.30;;;;;;;;;;5036295;28;20487;-81
2022/06/18 03:08:30;;;;;;;59.50;4.10;;;;;;;;;;5036661;28;20496;-81
2022/06/18 03:13:45;;;;;;;60.47;4.63;;;;;;;;;;5037391;28;20993;-81
2022/06/18 03:16:14;;;;;;;60.50;4.17;;;;;;;;;;5037794;28;20546;-82
2022/06/18 03:18:42;;;;;;;60.97;4.50;;;;;;;;;;5037209;28;21120;-82
2022/06/18 03:21:15;;;;;;;60.70;4.40;;;;;;;;;;5036611;28;20479;-81
2022/06/18 03:23:43;;;;;;;59.60;3.73;;;;;;;;;;5036662;28;20544;-82
2022/06/18 03:26:11;;;;;;;61.47;4.20;;;;;;;;;;5037564;28;20439;-81
2022/06/18 03:28:40;;;;;;;59.63;4.27;;;;;;;;;;5036748;28;20493;-82
2022/06/18 03:31:07;;;;;;;60.10;3.90;;;;;;;;;;5037018;28;20473;-81
2022/06/18 03:33:35;;;;;;;60.70;4.10;;;;;;;;;;5036078;28;20853;-82
2022/06/18 03:36:03;;;;;;;60.73;4.20;;;;;;;;;;5036262;28;20447;-81
2022/06/18 03:38:30;;;;;;;60.20;4.23;;;;;;;;;;5036673;28;20534;-80
2022/06/18 03:40:58;;;;;;;59.67;4.17;;;;;;;;;;5037232;28;20459;-81
2022/06/18 03:43:28;;;;;;;61.17;4.57;;;;;;;;;;5037792;28;20446;-81
2022/06/18 03:45:58;;;;;;;59.60;4.53;;;;;;;;;;5036557;28;20788;-81
2022/06/18 03:48:33;;;;;;;59.60;4.20;;;;;;;;;;5036568;28;20545;-81
2022/06/18 03:51:00;;;;;;;59.90;4.03;;;;;;;;;;5035250;28;20449;-81
2022/06/18 03:53:27;;;;;;;60.07;3.83;;;;;;;;;;5036526;28;20448;-81
2022/06/18 03:55:55;;;;;;;61.30;4.80;;;;;;;;;;5036591;28;20459;-81
2022/06/18 03:58:22;;;;;;;59.83;4.33;;;;;;;;;;5036003;28;20456;-81
2022/06/18 04:00:51;;;;;;;60.37;4.37;;;;;;;;;;5035559;28;20483;-81
2022/06/18 04:03:19;;;;;;;60.77;4.30;;;;;;;;;;5035581;28;20480;-81
2022/06/18 04:05:46;;;;;;;59.80;3.93;;;;;;;;;;5035909;28;20483;-81
2022/06/18 04:08:14;;;;;;;60.40;5.17;;;;;;;;;;5036334;28;20479;-81
2022/06/18 04:10:42;;;;;;;60.07;4.53;;;;;;;;;;5036650;28;20526;-81
2022/06/18 04:13:09;;;;;;;63.13;4.30;;;;;;;;;;5036752;28;20449;-81
2022/06/18 04:15:37;;;;;;;60.47;4.40;;;;;;;;;;5036610;28;20446;-81
2022/06/18 04:18:06;;;;;;;61.53;4.50;;;;;;;;;;5036983;28;20517;-82
2022/06/18 04:20:35;;;;;;;60.57;4.37;;;;;;;;;;5037296;28;20555;-81
2022/06/18 04:23:02;;;;;;;59.40;3.50;;;;;;;;;;5037038;28;20445;-81
2022/06/18 04:25:30;;;;;;;59.57;3.63;;;;;;;;;;5037235;28;20527;-81
2022/06/18 04:27:57;;;;;;;59.80;3.83;;;;;;;;;;5036794;28;20487;-81
2022/06/18 04:30:26;;;;;;;60.03;3.97;;;;;;;;;;5034380;28;20461;-81
2022/06/18 04:32:53;;;;;;;59.30;4.00;;;;;;;;;;5034766;28;20441;-81
2022/06/18 04:35:22;;;;;;;59.37;3.70;;;;;;;;;;5034873;28;20457;-81
2022/06/18 04:37:49;;;;;;;60.10;4.37;;;;;;;;;;5035201;28;20456;-80
2022/06/18 04:40:18;;;;;;;59.60;4.07;;;;;;;;;;5035833;28;20460;-81
2022/06/18 04:42:45;;;;;;;61.50;3.83;;;;;;;;;;5036218;28;20452;-81
2022/06/18 04:45:13;;;;;;;60.03;4.47;;;;;;;;;;5035917;28;20853;-81
2022/06/18 04:47:41;;;;;;;59.97;3.80;;;;;;;;;;5035664;28;20480;-81
2022/06/18 04:50:09;;;;;;;60.10;4.20;;;;;;;;;;5036290;28;21136;-81
2022/06/18 04:52:38;;;;;;;59.57;3.97;;;;;;;;;;5036609;28;20961;-81
2022/06/18 04:55:06;;;;;;;60.53;4.27;;;;;;;;;;5036940;28;20435;-81
2022/06/18 04:57:33;;;;;;;60.40;3.90;;;;;;;;;;5036978;28;20444;-81
2022/06/18 05:00:02;;;;;;;59.60;4.10;;;;;;;;;;5037135;28;20487;-81
2022/06/18 05:02:30;;;;;;;60.90;4.30;;;;;;;;;;5037033;28;20444;-81
2022/06/18 05:04:58;;;;;;;59.60;4.00;;;;;;;;;;5036373;28;20987;-81
2022/06/18 05:07:25;;;;;;;60.67;4.30;;;;;;;;;;5036761;28;20552;-81
2022/06/18 05:09:54;;;;;;;59.20;3.63;;;;;;;;;;5034264;28;20476;-81
2022/06/18 05:12:21;;;;;;;61.07;4.73;;;;;;;;;;5034854;28;20538;-81
2022/06/18 05:14:49;;;;;;;59.87;4.57;;;;;;;;;;5037430;28;20437;-81
2022/06/18 05:17:18;;;;;;;59.43;3.87;;;;;;;;;;5035806;28;20520;-81
2022/06/18 05:19:45;;;;;;;59.80;4.73;;;;;;;;;;5034948;28;20429;-81
2022/06/18 05:22:12;;;;;;;59.47;3.90;;;;;;;;;;5034596;28;20543;-81
2022/06/18 05:24:40;;;;;;;63.00;4.30;;;;;;;;;;5036423;28;20464;-81
2022/06/18 05:27:12;;;;;;;61.00;4.20;;;;;;;;;;5033282;28;20492;-81
2022/06/18 05:29:39;;;;;;;60.53;4.40;;;;;;;;;;5033934;28;20516;-82
2022/06/18 05:32:06;;;;;;;59.87;4.07;;;;;;;;;;5033783;28;20472;-82
2022/06/18 05:34:34;;;;;;;59.93;4.13;;;;;;;;;;5032914;28;20453;-81
2022/06/18 05:37:01;;;;;;;59.50;4.10;;;;;;;;;;5033281;28;20536;-81
2022/06/18 05:39:28;;;;;;;59.87;3.90;;;;;;;;;;5033427;28;20522;-81
2022/06/18 05:41:55;;;;;;;59.60;4.53;;;;;;;;;;5033415;28;20448;-82
2022/06/18 05:44:24;;;;;;;60.70;4.40;;;;;;;;;;5033676;28;20507;-81
2022/06/18 05:46:51;;;;;;;59.30;3.77;;;;;;;;;;5034173;28;20868;-81
2022/06/18 05:49:18;;;;;;;60.03;4.00;;;;;;;;;;5046240;28;20848;-81
2022/06/18 05:51:46;;;;;;;59.50;3.83;;;;;;;;;;5036613;28;20469;-81
2022/06/18 05:54:13;;;;;;;59.93;3.90;;;;;;;;;;5036195;28;20949;-83
2022/06/18 05:56:40;;;;;;;60.00;3.70;;;;;;;;;;5036299;28;20840;-81
2022/06/18 05:59:09;;;;;;;59.20;3.20;;;;;;;;;;5032521;28;20542;-81
2022/06/18 06:01:38;;;;;;;59.67;3.97;;;;;;;;;;5032826;28;20458;-81
2022/06/18 06:04:05;;;;;;;58.90;3.60;;;;;;;;;;5034000;28;20446;-81
2022/06/18 06:06:33;;;;;;;59.60;4.37;;;;;;;;;;5034380;28;20932;-81
2022/06/18 06:09:00;;;;;;;59.60;3.57;;;;;;;;;;5035249;28;20513;-81
2022/06/18 06:11:29;;;;;;;59.90;3.90;;;;;;;;;;5036076;28;20888;-80
2022/06/18 06:13:56;;;;;;;60.17;4.20;;;;;;;;;;5036988;28;20530;-81
2022/06/18 06:16:24;;;;;;;59.97;4.20;;;;;;;;;;5038715;28;20445;-81
2022/06/18 06:18:53;;;;;;;59.40;3.90;;;;;;;;;;5041609;28;20470;-80
2022/06/18 06:21:20;;;;;;;59.60;4.00;;;;;;;;;;5041019;28;20506;-83
2022/06/18 06:23:47;;;;;;;59.80;4.33;;;;;;;;;;5041755;28;20501;-83
2022/06/18 06:26:17;;;;;;;59.90;3.73;;;;;;;;;;5041965;28;20547;-82
2022/06/18 06:28:45;;;;;;;59.67;4.00;;;;;;;;;;5040568;28;20493;-83
2022/06/18 06:31:13;;;;;;;60.77;3.83;;;;;;;;;;5041829;28;20537;-82
2022/06/18 06:33:40;;;;;;;59.73;4.13;;;;;;;;;;5042571;28;20472;-82
2022/06/18 06:36:10;;;;;;;59.60;4.20;;;;;;;;;;5041974;28;20883;-82
2022/06/18 06:38:37;;;;;;;61.20;4.00;;;;;;;;;;5041684;28;20453;-82
2022/06/18 06:41:05;;;;;;;59.40;3.50;;;;;;;;;;5041763;28;20462;-83
2022/06/18 06:43:33;;;;;;;59.30;3.40;;;;;;;;;;5042722;28;20433;-83
2022/06/18 06:46:00;;;;;;;60.77;3.90;;;;;;;;;;5039855;28;20468;-82
2022/06/18 06:48:28;;;;;;;60.00;3.57;;;;;;;;;;5040507;28;20480;-81
2022/06/18 06:50:55;;;;;;;59.77;3.67;;;;;;;;;;5041512;28;20457;-82
2022/06/18 06:53:24;;;;;;;60.20;4.17;;;;;;;;;;5041030;28;20515;-82
2022/06/18 06:58:36;;;;;;;59.37;3.50;;;;;;;;;;5039449;28;20432;-82
2022/06/18 07:01:04;;;;;;;59.60;3.73;;;;;;;;;;5039569;28;20479;-82
2022/06/18 07:03:32;;;;;;;60.07;4.00;;;;;;;;;;5040217;28;20421;-82
2022/06/18 07:06:01;;;;;;;59.60;3.90;;;;;;;;;;5039593;28;20519;-82
2022/06/18 07:08:30;;;;;;;59.70;4.20;;;;;;;;;;5040329;28;20480;-83
2022/06/18 07:10:57;;;;;;;58.83;3.50;;;;;;;;;;5039819;28;20491;-82
2022/06/18 07:13:24;;;;;;;59.60;3.60;;;;;;;;;;5039481;28;20868;-81
2022/06/18 07:15:53;;;;;;;60.80;4.93;;;;;;;;;;5038878;28;20437;-81
2022/06/18 07:18:22;;;;;;;59.57;4.00;;;;;;;;;;5039469;28;20450;-79
2022/06/18 07:20:50;;;;;;;60.37;3.90;;;;;;;;;;5039629;28;20453;-78
2022/06/18 07:23:17;;;;;;;62.70;3.80;;;;;;;;;;5039603;28;20511;-80
2022/06/18 07:25:46;;;;;;;59.27;3.80;;;;;;;;;;5037881;28;20437;-80
2022/06/18 07:28:13;;;;;;;59.07;3.60;;;;;;;;;;5038461;28;20527;-80
2022/06/18 07:30:40;;;;;;;59.13;3.93;;;;;;;;;;5039109;28;20511;-79
2022/06/18 07:33:08;;;;;;;60.00;4.00;;;;;;;;;;5041232;28;20437;-80
2022/06/18 07:35:36;;;;;;;59.37;3.97;;;;;;;;;;5039716;28;20491;-80
2022/06/18 07:38:04;;;;;;;59.80;4.00;;;;;;;;;;5039728;28;20457;-80
2022/06/18 07:40:33;;;;;;;59.27;3.60;;;;;;;;;;5039963;28;20469;-80
2022/06/18 07:43:03;;;;;;;60.27;4.20;;;;;;;;;;5039336;28;21044;-81
2022/06/18 07:45:30;;;;;;;59.60;3.80;;;;;;;;;;5036308;28;20422;-81
2022/06/18 07:47:58;;;;;;;59.97;3.63;;;;;;;;;;5037541;28;20488;-81
2022/06/18 07:50:25;;;;;;;58.97;3.33;;;;;;;;;;5038558;28;20507;-81
2022/06/18 07:52:52;;;;;;;59.67;3.50;;;;;;;;;;5039006;28;20516;-80
2022/06/18 07:55:20;;;;;;;59.30;3.40;;;;;;;;;;5039178;28;20442;-81
2022/06/18 07:57:49;;;;;;;59.77;4.03;;;;;;;;;;5035513;28;20461;-81
2022/06/18 08:00:18;;;;;;;59.27;3.63;;;;;;;;;;5035623;28;20512;-81
2022/06/18 08:02:46;;;;;;;58.80;3.30;;;;;;;;;;5039939;28;20445;-80
2022/06/18 08:05:15;;;;;;;59.70;3.70;;;;;;;;;;5039333;28;20442;-80
2022/06/18 08:07:42;;;;;;;58.70;3.37;;;;;;;;;;5037480;28;20438;-81
2022/06/18 08:10:10;;;;;;;58.57;3.00;;;;;;;;;;5033411;28;20489;-86
2022/06/18 08:12:37;;;;;;;58.67;3.23;;;;;;;;;;5033323;28;20451;-81
2022/06/18 08:15:05;;;;;;;59.70;3.33;;;;;;;;;;5035739;28;20458;-82
2022/06/18 08:17:34;;;;;;;58.53;3.00;;;;;;;;;;5032977;28;20924;-83
2022/06/18 08:20:01;;;;;;;58.73;3.30;;;;;;;;;;5034321;28;20531;-82
2022/06/18 08:22:28;;;;;;;58.53;2.77;;;;;;;;;;5034451;28;20459;-82
2022/06/18 08:24:56;;;;;;;58.70;2.90;;;;;;;;;;5034870;28;20494;-82
2022/06/18 08:27:23;;;;;;;59.00;3.00;;;;;;;;;;5032957;28;20932;-82
2022/06/18 08:29:51;;;;;;;58.47;3.00;;;;;;;;;;5032667;28;20484;-82
2022/06/18 08:32:18;;;;;;;60.07;3.50;;;;;;;;;;5032459;28;20435;-82
2022/06/18 08:34:46;;;;;;;58.43;2.90;;;;;;;;;;5032289;28;20499;-82
2022/06/18 08:37:14;;;;;;;59.10;3.43;;;;;;;;;;5032407;28;20951;-82
2022/06/18 08:39:41;;;;;;;60.70;3.00;;;;;;;;;;5031940;28;20486;-82
2022/06/18 08:42:14;;;;;;;58.37;3.10;;;;;;;;;;5032621;28;20452;-82
2022/06/18 08:44:48;;;;;;;58.77;3.20;;;;;;;;;;5032308;28;20464;-83
2022/06/18 08:47:22;;;;;;;58.60;3.00;;;;;;;;;;5032264;28;20437;-83
2022/06/18 08:50:13;;;;;;;59.43;3.70;;;;;;;;;;5032060;28;20572;-83
2022/06/18 08:52:54;;;;;;;59.30;3.40;;;;;;;;;;5021899;28;20499;-82
2022/06/18 08:55:27;;;;;;;59.80;3.30;;;;;;;;;;5032296;28;20491;-82
2022/06/18 08:58:02;;;;;;;58.57;2.90;;;;;;;;;;5032666;28;20433;-81
2022/06/18 09:00:31;;;;;;;59.47;3.37;;;;;;;;;;5032198;28;20451;-82
2022/06/18 09:03:00;;;;;;;58.30;2.80;;;;;;;;;;5032891;28;20510;-82
2022/06/18 09:05:32;;;;;;;58.73;3.40;;;;;;;;;;5032785;28;20432;-82
2022/06/18 09:08:26;;;;;;;58.63;2.90;;;;;;;;;;5031967;28;20490;-82
2022/06/18 09:11:01;;;;;;;59.53;2.83;;;;;;;;;;5007959;28;20473;-82
2022/06/18 09:13:31;;;;;;;58.83;3.20;;;;;;;;;;5032151;28;20971;-83
2022/06/18 09:16:01;;;;;;;58.87;3.20;;;;;;;;;;5032093;28;20838;-83
2022/06/18 09:18:31;;;;;;;58.37;2.87;;;;;;;;;;5032628;28;20433;-82
2022/06/18 09:21:00;;;;;;;59.37;2.80;;;;;;;;;;5031791;28;20457;-83
2022/06/18 09:23:29;;;;;;;58.00;2.90;;;;;;;;;;5031890;28;20473;-84
2022/06/18 09:25:59;;;;;;;58.70;2.97;;;;;;;;;;5032012;28;20448;-83
2022/06/18 09:28:27;;;;;;;58.47;2.70;;;;;;;;;;5032117;28;20437;-83
2022/06/18 09:30:59;;;;;;;59.03;2.87;;;;;;;;;;5031867;28;20457;-83
2022/06/18 09:33:29;;;;;;;58.33;2.77;;;;;;;;;;5031814;28;20449;-83
2022/06/18 09:35:57;;;;;;;58.10;2.73;;;;;;;;;;5032137;28;20449;-83
2022/06/18 09:38:26;;;;;;;58.50;3.00;;;;;;;;;;5031684;28;20463;-83
2022/06/18 09:40:55;;;;;;;58.40;2.87;;;;;;;;;;5031918;28;20450;-83
2022/06/18 09:43:27;;;;;;;60.20;2.97;;;;;;;;;;5031914;28;20464;-83
2022/06/18 09:45:55;;;;;;;58.20;2.80;;;;;;;;;;5031885;28;20854;-83
2022/06/18 09:48:23;;;;;;;60.90;3.40;;;;;;;;;;5031528;28;20867;-83
2022/06/18 09:50:51;;;;;;;58.30;2.53;;;;;;;;;;5034470;28;20904;-83
2022/06/18 09:53:20;;;;;;;58.10;2.50;;;;;;;;;;5035938;28;20429;-83
2022/06/18 09:55:48;;;;;;;58.23;2.60;;;;;;;;;;5036089;28;20445;-83
2022/06/18 09:58:18;;;;;;;58.03;2.63;;;;;;;;;;5035086;28;20778;-83
2022/06/18 10:00:47;;;;;;;57.90;2.30;;;;;;;;;;5035373;28;20464;-83
2022/06/18 10:06:52;;;;;;;57.97;2.43;;;;;;;;;;5035482;28;20492;-84
2022/06/18 10:08:51;;;;;;;58.40;2.50;;;;;;;;;;5035214;28;20486;-83
2022/06/18 10:11:19;;;;;;;57.77;2.30;;;;;;;;;;5035199;28;20450;-83
2022/06/18 10:13:50;;;;;;;58.00;2.30;;;;;;;;;;5035312;28;20445;-83
2022/06/18 10:16:25;;;;;;;58.30;2.50;;;;;;;;;;5035355;28;20433;-84
2022/06/18 10:18:57;;;;;;;57.80;2.30;;;;;;;;;;5034890;28;20437;-83
2022/06/18 10:21:30;;;;;;;57.53;2.30;;;;;;;;;;5035083;28;20454;-83
2022/06/18 10:24:01;;;;;;;58.07;2.60;;;;;;;;;;5035058;28;20929;-83
2022/06/18 10:26:33;;;;;;;57.90;2.20;;;;;;;;;;5034965;28;20473;-83
2022/06/18 10:29:04;;;;;;;57.47;2.40;;;;;;;;;;5034813;28;20515;-85
2022/06/18 10:31:37;;;;;;;57.60;2.23;;;;;;;;;;5035428;28;20473;-83
2022/06/18 10:34:09;;;;;;;56.93;2.23;;;;;;;;;;5035403;28;20468;-83
2022/06/18 10:36:41;;;;;;;56.73;2.00;;;;;;;;;;5035230;28;20540;-85
2022/06/18 10:39:12;;;;;;;57.17;2.50;;;;;;;;;;5034824;28;20460;-83
2022/06/18 10:41:45;;;;;;;57.17;2.40;;;;;;;;;;5037656;28;20485;-84
2022/06/18 10:44:18;;;;;;;57.03;2.60;;;;;;;;;;5044858;28;20429;-84
2022/06/18 10:46:47;;;;;;;57.37;2.60;;;;;;;;;;5045032;28;20559;-83
2022/06/18 10:49:14;;;;;;;57.30;2.50;;;;;;;;;;5047003;28;21061;-83
2022/06/18 10:51:45;;;;;;;56.57;2.70;;;;;;;;;;5037542;28;20520;-84
2022/06/18 10:54:13;;;;;;;57.17;2.63;;;;;;;;;;5034900;28;20448;-82
2022/06/18 10:56:49;;;;;;;58.90;2.50;;;;;;;;;;5034860;28;20434;-84
2022/06/18 10:59:16;;;;;;;56.97;2.47;;;;;;;;;;5034417;28;20445;-84
2022/06/18 11:01:46;;;;;;;56.87;2.70;;;;;;;;;;5034007;28;20507;-84
2022/06/18 11:04:21;;;;;;;57.17;2.40;;;;;;;;;;5035304;28;20481;-84
2022/06/18 11:06:50;;;;;;;57.13;2.33;;;;;;;;;;5037876;28;20993;-84
2022/06/18 11:09:22;;;;;;;56.77;2.37;;;;;;;;;;5040862;28;20477;-84
2022/06/18 11:11:53;;;;;;;57.40;2.40;;;;;;;;;;5038472;28;21091;-84
2022/06/18 11:14:21;;;;;;;57.30;2.20;;;;;;;;;;5034991;28;20528;-83
2022/06/18 11:16:51;;;;;;;56.57;2.03;;;;;;;;;;5034122;28;20842;-85
2022/06/18 11:19:21;;;;;;;56.57;2.20;;;;;;;;;;5034056;28;20481;-81
2022/06/18 11:21:48;;;;;;;60.50;2.50;;;;;;;;;;5034147;28;20461;-79
2022/06/18 11:24:22;;;;;;;56.60;2.30;;;;;;;;;;5034020;28;20448;-85
2022/06/18 11:26:55;;;;;;;57.27;2.50;;;;;;;;;;5033730;28;20489;-83
2022/06/18 11:29:28;;;;;;;57.00;2.43;;;;;;;;;;5033859;28;20470;-83
2022/06/18 11:31:57;;;;;;;58.50;2.23;;;;;;;;;;5038429;28;20468;-84
2022/06/18 11:34:27;;;;;;;56.67;2.63;;;;;;;;;;5053151;28;20425;-84
2022/06/18 11:36:56;;;;;;;56.70;2.40;;;;;;;;;;5053169;28;20737;-85
2022/06/18 11:39:34;;;;;;;57.93;2.20;;;;;;;;;;5053103;28;20959;-85
2022/06/18 11:42:04;;;;;;;56.03;2.27;;;;;;;;;;5053211;28;20931;-84
2022/06/18 11:44:34;;;;;;;56.33;1.90;;;;;;;;;;5053114;28;20927;-84
2022/06/18 11:47:05;;;;;;;55.73;2.00;;;;;;;;;;5054024;28;20419;-82
2022/06/18 11:49:36;;;;;;;56.63;2.37;;;;;;;;;;5054299;28;20480;-85
2022/06/18 11:52:06;;;;;;;57.13;2.47;;;;;;;;;;5053267;28;20433;-82
2022/06/18 11:54:37;;;;;;;56.90;2.20;;;;;;;;;;5053207;28;20819;-85
2022/06/18 11:57:06;;;;;;;57.37;2.60;;;;;;;;;;5052907;28;20504;-84
2022/06/18 11:59:37;;;;;;;56.60;2.40;;;;;;;;;;5052843;28;20800;-83
2022/06/18 12:02:06;;;;;;;55.47;2.30;;;;;;;;;;5052109;28;20465;-82
2022/06/18 12:04:38;;;;;;;57.67;2.20;;;;;;;;;;5053669;28;20444;-85
2022/06/18 12:07:09;;;;;;;55.70;2.23;;;;;;;;;;5054432;28;20437;-86
2022/06/18 12:09:37;;;;;;;57.77;2.33;;;;;;;;;;5053485;28;20483;-83
2022/06/18 12:12:19;;;;;;;56.77;2.10;;;;;;;;;;5053351;28;20459;-84
2022/06/18 12:14:51;;;;;;;57.37;2.63;;;;;;;;;;5051441;28;20448;-83
2022/06/18 12:17:21;;;;;;;57.77;2.30;;;;;;;;;;5052689;28;20435;-85
2022/06/18 12:19:59;;;;;;;57.10;2.40;;;;;;;;;;5052338;28;20460;-84
2022/06/18 12:22:34;;;;;;;57.10;2.60;;;;;;;;;;5052518;28;20412;-83
2022/06/18 12:25:15;;;;;;;57.07;2.20;;;;;;;;;;5052803;28;20460;-85
2022/06/18 12:27:44;;;;;;;57.00;2.37;;;;;;;;;;5051724;28;20417;-85
2022/06/18 12:30:16;;;;;;;57.07;2.57;;;;;;;;;;5052170;28;20508;-85
2022/06/18 12:32:48;;;;;;;57.57;2.50;;;;;;;;;;5052586;28;20443;-84
2022/06/18 12:35:21;;;;;;;57.90;2.77;;;;;;;;;;5045386;28;20469;-85
2022/06/18 12:37:54;;;;;;;56.70;3.10;;;;;;;;;;5032063;28;20503;-85
2022/06/18 12:40:24;;;;;;;58.37;2.63;;;;;;;;;;5032603;28;20473;-85
2022/06/18 12:42:54;;;;;;;58.50;2.70;;;;;;;;;;5031397;28;20462;-85
2022/06/18 12:45:26;;;;;;;56.00;2.37;;;;;;;;;;5032485;28;20453;-84
2022/06/18 12:47:58;;;;;;;58.30;2.83;;;;;;;;;;5032084;28;20437;-85
2022/06/18 12:50:35;;;;;;;56.70;2.57;;;;;;;;;;5032813;28;20501;-85
2022/06/18 12:53:07;;;;;;;55.80;2.40;;;;;;;;;;5032303;28;21010;-84
2022/06/18 12:55:38;;;;;;;65.00;3.47;;;;;;;;;;5032383;28;20420;-84
2022/06/18 12:58:13;;;;;;;60.50;2.67;;;;;;;;;;5032285;28;20946;-85
2022/06/18 13:00:43;;;;;;;59.60;2.83;;;;;;;;;;5032310;28;20539;-85
2022/06/18 13:03:21;;;;;;;61.30;3.00;;;;;;;;;;5032077;28;20479;-86
2022/06/18 13:05:50;;;;;;;57.63;3.20;;;;;;;;;;5032237;28;20518;-86
2022/06/18 13:08:25;;;;;;;57.00;2.87;;;;;;;;;;5036892;28;20494;-85
2022/06/18 13:10:55;;;;;;;56.97;3.10;;;;;;;;;;5051964;28;20483;-86
2022/06/18 13:13:29;;;;;;;58.90;2.70;;;;;;;;;;5051928;28;20443;-86
2022/06/18 13:15:59;;;;;;;61.93;3.30;;;;;;;;;;5051891;28;20531;-86
2022/06/18 13:18:29;;;;;;;57.87;2.80;;;;;;;;;;5051934;28;20429;-85
2022/06/18 13:20:59;;;;;;;57.47;2.90;;;;;;;;;;5052260;28;20464;-85
2022/06/18 13:29:05;;;;;;;62.60;3.57;;;;;;;;;;5055627;28;20443;-84
2022/06/18 13:31:35;;;;;;;58.07;2.83;;;;;;;;;;5055880;28;21040;-86
2022/06/18 13:34:06;;;;;;;59.97;3.40;;;;;;;;;;5055738;28;20437;-86
2022/06/18 13:36:38;;;;;;;59.43;2.90;;;;;;;;;;5055824;28;20451;-86
2022/06/18 13:39:08;;;;;;;59.30;3.60;;;;;;;;;;5055420;28;20946;-86
2022/06/18 13:41:40;;;;;;;62.47;3.20;;;;;;;;;;5053709;28;20479;-86
2022/06/18 13:44:16;;;;;;;63.30;3.20;;;;;;;;;;5056392;28;20452;-85
2022/06/18 13:46:47;;;;;;;62.53;3.40;;;;;;;;;;5055758;28;20474;-85
2022/06/18 13:49:19;;;;;;;61.57;3.07;;;;;;;;;;5055117;28;20433;-85
2022/06/18 13:51:57;;;;;;;57.80;2.77;;;;;;;;;;5055400;28;20476;-85
2022/06/18 13:54:24;;;;;;;60.73;4.60;;;;;;;;;;5055630;28;20447;-85
2022/06/18 13:56:57;;;;;;;64.10;3.40;;;;;;;;;;5055305;28;20463;-84
2022/06/18 13:59:25;;;;;;;59.10;3.03;;;;;;;;;;5055116;28;20920;-85
2022/06/18 14:01:53;;;;;;;59.73;3.10;;;;;;;;;;5055705;28;20846;-86
2022/06/18 14:04:25;;;;;;;59.40;3.40;;;;;;;;;;5055274;28;20445;-86
2022/06/18 14:06:56;;;;;;;60.17;2.90;;;;;;;;;;5055195;28;20770;-82
2022/06/18 14:09:24;;;;;;;60.67;4.60;;;;;;;;;;5055084;28;20490;-86
2022/06/18 14:11:56;;;;;;;59.27;3.67;;;;;;;;;;5055242;28;20476;-85
2022/06/18 14:14:28;;;;;;;60.53;3.30;;;;;;;;;;5054183;28;20853;-84
2022/06/18 14:17:01;;;;;;;58.17;4.30;;;;;;;;;;5054952;28;20432;-83
2022/06/18 14:19:29;;;;;;;62.10;3.67;;;;;;;;;;5054914;28;20436;-85
2022/06/18 14:22:06;;;;;;;64.70;3.90;;;;;;;;;;5055525;28;20514;-86
2022/06/18 14:24:41;;;;;;;58.87;3.03;;;;;;;;;;5055509;28;20455;-85
2022/06/18 14:27:08;;;;;;;61.20;3.20;;;;;;;;;;5055146;28;20550;-84
2022/06/18 14:29:40;;;;;;;58.73;2.90;;;;;;;;;;5054441;28;20990;-82
2022/06/18 14:32:11;;;;;;;57.50;2.90;;;;;;;;;;5055008;28;20491;-81
2022/06/18 14:34:42;;;;;;;58.10;2.87;;;;;;;;;;5054966;28;20513;-82
2022/06/18 14:37:12;;;;;;;59.00;3.00;;;;;;;;;;5054017;28;20417;-81
2022/06/18 14:39:44;;;;;;;60.80;3.43;;;;;;;;;;5055312;28;20456;-82
2022/06/18 14:42:14;;;;;;;59.10;3.37;;;;;;;;;;5055314;28;20959;-82
2022/06/18 14:44:51;;;;;;;58.30;3.20;;;;;;;;;;5051166;28;20503;-82
2022/06/18 14:47:30;;;;;;;58.80;3.10;;;;;;;;;;5055185;28;20424;-82
2022/06/18 14:50:04;;;;;;;60.33;4.50;;;;;;;;;;5054384;28;20452;-85
2022/06/18 14:52:40;;;;;;;58.50;3.30;;;;;;;;;;5055341;28;20681;-85
2022/06/18 14:55:25;;;;;;;63.40;3.53;;;;;;;;;;5054721;28;20425;-82
2022/06/18 14:58:17;;;;;;;58.63;3.03;;;;;;;;;;5056935;28;20471;-82
2022/06/18 15:00:55;;;;;;;64.77;3.60;;;;;;;;;;5049921;28;20475;-82
2022/06/18 15:03:25;;;;;;;57.70;3.43;;;;;;;;;;5062532;28;20436;-82
2022/06/18 15:05:56;;;;;;;63.37;3.60;;;;;;;;;;5059138;28;20475;-83